createdAt,value
2016-05-07T00:00:15.684Z,15.24
2016-05-07T00:01:15.718Z,15.24
2016-05-07T00:02:15.751Z,15.35
2016-05-07T00:03:15.645Z,15.22
2016-05-07T00:04:15.679Z,15.31
2016-05-07T00:05:15.900Z,15.31
2016-05-07T00:06:15.903Z,15.4
2016-05-07T00:07:15.953Z,15.42
2016-05-07T00:08:15.987Z,15.36
2016-05-07T00:09:16.020Z,15.55
2016-05-07T00:10:16.055Z,15.57
2016-05-07T00:11:16.103Z,15.37
2016-05-07T00:12:16.139Z,15.51
2016-05-07T00:13:16.172Z,15.4
2016-05-07T00:14:16.065Z,15.35
2016-05-07T00:15:16.240Z,15.24
2016-05-07T00:16:16.289Z,15.19
2016-05-07T00:17:16.354Z,15.19
2016-05-07T00:18:16.357Z,15.11
2016-05-07T00:19:16.235Z,15.15
2016-05-07T00:20:16.425Z,15.18
2016-05-07T00:21:16.475Z,15.06
2016-05-07T00:22:16.352Z,15.07
2016-05-07T00:23:16.386Z,15.03
2016-05-07T00:24:16.592Z,15.04
2016-05-07T00:25:16.626Z,14.94
2016-05-07T00:26:16.504Z,14.99
2016-05-07T00:27:16.694Z,14.94
2016-05-07T00:28:16.759Z,14.84
2016-05-07T00:29:16.777Z,14.99
2016-05-07T00:30:16.811Z,15.02
2016-05-07T00:31:16.690Z,14.97
2016-05-07T00:32:16.910Z,14.99
2016-05-07T00:33:16.929Z,14.92
2016-05-07T00:34:16.806Z,14.97
2016-05-07T00:35:17.012Z,14.92
2016-05-07T00:36:17.031Z,14.89
2016-05-07T00:37:17.064Z,15.02
2016-05-07T00:38:17.099Z,15.1
2016-05-07T00:39:16.992Z,15.17
2016-05-07T00:40:17.182Z,15.25
2016-05-07T00:41:17.216Z,15.11
2016-05-07T00:42:17.094Z,15.03
2016-05-07T00:43:17.143Z,14.94
2016-05-07T00:44:17.317Z,14.79
2016-05-07T00:45:17.211Z,14.84
2016-05-07T00:46:17.402Z,14.84
2016-05-07T00:47:17.435Z,14.82
2016-05-07T00:48:17.313Z,14.82
2016-05-07T00:49:17.503Z,14.84
2016-05-07T00:50:17.552Z,14.77
2016-05-07T00:51:17.430Z,14.81
2016-05-07T00:52:17.621Z,14.86
2016-05-07T00:53:17.685Z,14.7
2016-05-07T00:54:17.548Z,14.7
2016-05-07T00:55:17.738Z,14.63
2016-05-07T00:56:17.772Z,14.73
2016-05-07T00:57:17.666Z,14.73
2016-05-07T00:58:17.683Z,14.72
2016-05-07T00:59:17.890Z,14.65
2016-05-07T01:00:17.923Z,14.62
2016-05-07T01:01:17.973Z,14.51
2016-05-07T01:02:17.850Z,14.51
2016-05-07T01:03:18.040Z,14.5
2016-05-07T01:04:18.075Z,14.47
2016-05-07T01:05:18.109Z,14.36
2016-05-07T01:06:18.143Z,14.45
2016-05-07T01:07:18.192Z,14.44
2016-05-07T01:08:18.226Z,14.44
2016-05-07T01:09:18.103Z,14.5
2016-05-07T01:10:18.137Z,14.48
2016-05-07T01:11:18.328Z,14.5
2016-05-07T01:12:18.347Z,14.45
2016-05-07T01:13:18.395Z,14.51
2016-05-07T01:14:18.133Z,14.59
2016-05-07T01:15:18.480Z,14.63
2016-05-07T01:16:18.528Z,14.78
2016-05-07T01:17:18.406Z,14.82
2016-05-07T01:18:18.581Z,14.86
2016-05-07T01:19:18.615Z,14.72
2016-05-07T01:20:18.664Z,14.88
2016-05-07T01:21:18.698Z,14.81
2016-05-07T01:22:18.733Z,14.66
2016-05-07T01:23:18.782Z,14.54
2016-05-07T01:24:18.800Z,14.62
2016-05-07T01:25:18.521Z,14.77
2016-05-07T01:26:18.885Z,14.77
2016-05-07T01:27:18.948Z,14.79
2016-05-07T01:28:18.952Z,14.88
2016-05-07T01:29:19.002Z,14.69
2016-05-07T01:30:19.035Z,14.73
2016-05-07T01:31:19.068Z,14.81
2016-05-07T01:32:18.947Z,14.7
2016-05-07T01:33:19.137Z,14.82
2016-05-07T01:34:19.171Z,14.6
2016-05-07T01:35:19.221Z,14.6
2016-05-07T01:36:19.254Z,14.59
2016-05-07T01:37:19.289Z,14.41
2016-05-07T01:38:19.337Z,14.29
2016-05-07T01:39:19.356Z,14.23
2016-05-07T01:40:19.250Z,14.22
2016-05-07T01:41:19.324Z,14.35
2016-05-07T01:42:20.002Z,14.32
2016-05-07T01:43:20.020Z,14.2
2016-05-07T01:44:20.691Z,14.32
2016-05-07T01:45:19.413Z,14.33
2016-05-07T01:46:19.618Z,14.45
2016-05-07T01:47:19.496Z,14.54
2016-05-07T01:48:19.702Z,14.45
2016-05-07T01:49:19.720Z,14.32
2016-05-07T01:50:19.769Z,14.26
2016-05-07T01:51:19.648Z,14.11
2016-05-07T01:52:19.837Z,14.26
2016-05-07T01:53:19.886Z,14.23
2016-05-07T01:54:19.921Z,14.32
2016-05-07T01:55:19.783Z,14.26
2016-05-07T01:56:19.973Z,14.47
2016-05-07T01:57:19.976Z,14.44
2016-05-07T01:58:20.056Z,14.3
2016-05-07T01:59:20.091Z,14.33
2016-05-07T02:00:20.125Z,14.32
2016-05-07T02:01:20.174Z,14.3
2016-05-07T02:02:20.192Z,14.43
2016-05-07T02:03:20.086Z,14.33
2016-05-07T02:04:20.276Z,14.26
2016-05-07T02:05:20.310Z,14.29
2016-05-07T02:06:20.360Z,14.32
2016-05-07T02:07:20.222Z,14.32
2016-05-07T02:08:20.271Z,14.3
2016-05-07T02:09:20.446Z,14.33
2016-05-07T02:10:20.526Z,14.32
2016-05-07T02:11:20.373Z,14.32
2016-05-07T02:12:20.251Z,14.32
2016-05-07T02:13:20.629Z,14.26
2016-05-07T02:14:20.662Z,14.2
2016-05-07T02:15:20.665Z,14.25
2016-05-07T02:16:20.714Z,14.28
2016-05-07T02:17:20.749Z,14.32
2016-05-07T02:18:20.782Z,14.32
2016-05-07T02:19:20.817Z,14.2
2016-05-07T02:20:20.865Z,14.11
2016-05-07T02:21:20.900Z,14.22
2016-05-07T02:22:20.761Z,14.22
2016-05-07T02:23:20.984Z,14.23
2016-05-07T02:24:21.004Z,14
2016-05-07T02:25:21.054Z,14.07
2016-05-07T02:26:20.917Z,14.18
2016-05-07T02:27:20.965Z,14.18
2016-05-07T02:28:21.156Z,14.26
2016-05-07T02:29:21.175Z,14.1
2016-05-07T02:30:21.209Z,13.92
2016-05-07T02:31:21.258Z,13.99
2016-05-07T02:32:21.291Z,13.99
2016-05-07T02:33:21.325Z,13.79
2016-05-07T02:34:21.360Z,13.75
2016-05-07T02:35:21.394Z,13.63
2016-05-07T02:36:21.428Z,13.56
2016-05-07T02:37:21.461Z,13.62
2016-05-07T02:38:21.369Z,13.49
2016-05-07T02:39:21.389Z,13.47
2016-05-07T02:40:21.580Z,13.3
2016-05-07T02:41:21.613Z,13.28
2016-05-07T02:42:21.928Z,13.47
2016-05-07T02:43:21.680Z,13.56
2016-05-07T02:44:21.418Z,13.31
2016-05-07T02:45:21.452Z,13.37
2016-05-07T02:46:21.799Z,13.25
2016-05-07T02:47:21.832Z,13.52
2016-05-07T02:48:21.866Z,13.59
2016-05-07T02:49:21.899Z,13.7
2016-05-07T02:50:21.621Z,13.71
2016-05-07T02:51:21.968Z,13.78
2016-05-07T02:52:22.018Z,13.74
2016-05-07T02:53:22.035Z,13.72
2016-05-07T02:54:22.070Z,13.7
2016-05-07T02:55:22.120Z,13.81
2016-05-07T02:56:22.153Z,13.7
2016-05-07T02:57:22.250Z,13.75
2016-05-07T02:58:22.237Z,13.87
2016-05-07T02:59:22.098Z,13.7
2016-05-07T03:00:22.164Z,13.49
2016-05-07T03:01:22.323Z,13.6
2016-05-07T03:02:22.372Z,13.72
2016-05-07T03:03:22.094Z,13.72
2016-05-07T03:04:22.456Z,13.79
2016-05-07T03:05:22.490Z,13.81
2016-05-07T03:06:22.352Z,13.79
2016-05-07T03:07:22.542Z,13.86
2016-05-07T03:08:22.575Z,13.75
2016-05-07T03:09:22.625Z,13.7
2016-05-07T03:10:22.644Z,13.75
2016-05-07T03:11:22.584Z,13.67
2016-05-07T03:12:22.711Z,13.7
2016-05-07T03:13:22.761Z,13.7
2016-05-07T03:14:22.795Z,13.72
2016-05-07T03:15:22.830Z,13.72
2016-05-07T03:16:22.863Z,13.7
2016-05-07T03:17:22.913Z,13.67
2016-05-07T03:18:22.946Z,13.7
2016-05-07T03:19:22.809Z,13.39
2016-05-07T03:20:23.076Z,13.37
2016-05-07T03:21:22.736Z,13.3
2016-05-07T03:22:23.067Z,13.2
2016-05-07T03:23:23.132Z,13.15
2016-05-07T03:24:23.150Z,13.22
2016-05-07T03:25:23.029Z,13.42
2016-05-07T03:26:23.234Z,13.33
2016-05-07T03:27:23.252Z,13.23
2016-05-07T03:28:23.317Z,13.18
2016-05-07T03:29:23.320Z,13.16
2016-05-07T03:30:23.353Z,13.27
2016-05-07T03:31:23.404Z,13.33
2016-05-07T03:32:23.453Z,13.31
2016-05-07T03:33:23.472Z,13.33
2016-05-07T03:34:23.520Z,13.37
2016-05-07T03:35:23.540Z,13.47
2016-05-07T03:36:23.573Z,13.54
2016-05-07T03:37:23.608Z,13.5
2016-05-07T03:38:23.656Z,13.52
2016-05-07T03:39:23.534Z,13.49
2016-05-07T03:40:23.724Z,13.28
2016-05-07T03:41:23.759Z,13.49
2016-05-07T03:42:23.808Z,13.47
2016-05-07T03:43:23.826Z,13.53
2016-05-07T03:44:23.860Z,13.47
2016-05-07T03:45:23.738Z,13.62
2016-05-07T03:46:23.928Z,13.59
2016-05-07T03:47:23.963Z,13.59
2016-05-07T03:48:23.996Z,13.6
2016-05-07T03:49:24.046Z,13.59
2016-05-07T03:50:24.064Z,13.49
2016-05-07T03:51:24.113Z,13.63
2016-05-07T03:52:24.148Z,13.56
2016-05-07T03:53:24.181Z,13.57
2016-05-07T03:54:24.215Z,13.52
2016-05-07T03:55:24.249Z,13.52
2016-05-07T03:56:24.298Z,13.42
2016-05-07T03:57:24.208Z,13.46
2016-05-07T03:58:24.367Z,13.46
2016-05-07T03:59:24.245Z,13.37
2016-05-07T04:00:24.434Z,13.31
2016-05-07T04:01:24.468Z,13.41
2016-05-07T04:02:24.503Z,13.41
2016-05-07T04:03:24.552Z,13.5
2016-05-07T04:04:24.570Z,13.42
2016-05-07T04:05:24.448Z,13.44
2016-05-07T04:06:24.639Z,13.49
2016-05-07T04:07:24.672Z,13.52
2016-05-07T04:08:24.706Z,13.38
2016-05-07T04:09:24.756Z,13.38
2016-05-07T04:10:24.774Z,13.52
2016-05-07T04:11:24.652Z,13.63
2016-05-07T04:12:24.889Z,13.74
2016-05-07T04:13:24.891Z,13.72
2016-05-07T04:14:24.769Z,13.47
2016-05-07T04:15:24.803Z,13.37
2016-05-07T04:16:24.993Z,13.18
2016-05-07T04:17:24.871Z,13.08
2016-05-07T04:18:24.905Z,13.05
2016-05-07T04:19:25.111Z,13.27
2016-05-07T04:20:24.988Z,13.16
2016-05-07T04:21:25.022Z,13.16
2016-05-07T04:22:25.212Z,13.2
2016-05-07T04:23:25.246Z,13.27
2016-05-07T04:24:25.280Z,13.31
2016-05-07T04:25:25.315Z,13.31
2016-05-07T04:26:25.364Z,13.46
2016-05-07T04:27:25.835Z,13.47
2016-05-07T04:28:25.416Z,13.52
2016-05-07T04:29:25.465Z,13.57
2016-05-07T04:30:25.484Z,13.77
2016-05-07T04:31:25.518Z,13.86
2016-05-07T04:32:25.567Z,14.26
2016-05-07T04:33:25.586Z,14.45
2016-05-07T04:34:25.620Z,14.54
2016-05-07T04:35:25.669Z,14.85
2016-05-07T04:36:25.704Z,15.14
2016-05-07T04:37:25.737Z,15.42
2016-05-07T04:38:25.630Z,15.52
2016-05-07T04:39:25.650Z,15.83
2016-05-07T04:40:25.839Z,15.86
2016-05-07T04:41:25.872Z,15.4
2016-05-07T04:42:25.782Z,15.19
2016-05-07T04:43:25.957Z,15.18
2016-05-07T04:44:25.991Z,14.91
2016-05-07T04:45:26.024Z,14.79
2016-05-07T04:46:36.217Z,14.55
2016-05-07T04:47:26.108Z,14.62
2016-05-07T04:48:25.970Z,14.54
2016-05-07T04:49:26.019Z,14.48
2016-05-07T04:50:26.210Z,14.44
2016-05-07T04:51:26.244Z,14.37
2016-05-07T04:52:26.277Z,14.4
2016-05-07T04:53:26.312Z,14.44
2016-05-07T04:54:26.345Z,14.45
2016-05-07T04:55:26.223Z,14.37
2016-05-07T04:56:26.413Z,14.26
2016-05-07T04:57:26.307Z,14.3
2016-05-07T04:58:26.496Z,14.28
2016-05-07T04:59:26.531Z,14.28
2016-05-07T05:00:26.565Z,14.32
2016-05-07T05:01:26.599Z,14.17
2016-05-07T05:02:26.632Z,14.26
2016-05-07T05:03:26.510Z,14.3
2016-05-07T05:04:26.700Z,14.41
2016-05-07T05:05:26.735Z,14.53
2016-05-07T05:06:26.784Z,14.5
2016-05-07T05:07:26.817Z,14.44
2016-05-07T05:08:26.852Z,14.3
2016-05-07T05:09:26.901Z,14.3
2016-05-07T05:10:26.920Z,14.25
2016-05-07T05:11:26.954Z,14.29
2016-05-07T05:12:27.175Z,14.26
2016-05-07T05:13:27.037Z,14.29
2016-05-07T05:14:27.071Z,14.3
2016-05-07T05:15:27.105Z,14.45
2016-05-07T05:16:27.170Z,14.47
2016-05-07T05:17:27.189Z,14.47
2016-05-07T05:18:27.222Z,14.44
2016-05-07T05:19:27.257Z,14.32
2016-05-07T05:20:27.291Z,14.43
2016-05-07T05:21:27.324Z,14.32
2016-05-07T05:22:27.203Z,14.48
2016-05-07T05:23:27.408Z,14.6
2016-05-07T05:24:27.441Z,14.59
2016-05-07T05:25:27.476Z,14.59
2016-05-07T05:26:27.510Z,14.66
2016-05-07T05:27:27.543Z,14.65
2016-05-07T05:28:27.437Z,14.68
2016-05-07T05:29:27.627Z,14.59
2016-05-07T05:30:27.505Z,14.47
2016-05-07T05:31:27.539Z,14.5
2016-05-07T05:32:27.729Z,14.65
2016-05-07T05:33:27.763Z,14.82
2016-05-07T05:34:27.812Z,14.78
2016-05-07T05:35:27.846Z,14.73
2016-05-07T05:36:27.881Z,14.82
2016-05-07T05:37:27.914Z,14.84
2016-05-07T05:38:27.948Z,14.85
2016-05-07T05:39:27.998Z,14.86
2016-05-07T05:40:28.016Z,14.99
2016-05-07T05:41:28.067Z,15.07
2016-05-07T05:42:28.444Z,15.11
2016-05-07T05:43:28.336Z,15.19
2016-05-07T05:44:28.184Z,15.28
2016-05-07T05:45:28.217Z,15.24
2016-05-07T05:46:28.236Z,15.31
2016-05-07T05:47:28.269Z,15.31
2016-05-07T05:48:28.319Z,15.44
2016-05-07T05:49:28.353Z,15.37
2016-05-07T05:50:28.386Z,15.46
2016-05-07T05:51:28.421Z,15.55
2016-05-07T05:52:28.455Z,15.7
2016-05-07T05:53:28.489Z,15.62
2016-05-07T05:54:28.522Z,15.83
2016-05-07T05:55:28.572Z,15.82
2016-05-07T05:56:28.607Z,15.8
2016-05-07T05:57:28.702Z,15.84
2016-05-07T05:58:28.674Z,15.82
2016-05-07T05:59:28.724Z,16.04
2016-05-07T06:00:28.774Z,15.95
2016-05-07T06:01:28.791Z,16.05
2016-05-07T06:02:28.826Z,16.01
2016-05-07T06:03:28.718Z,15.97
2016-05-07T06:04:28.909Z,15.97
2016-05-07T06:05:28.943Z,15.94
2016-05-07T06:06:28.977Z,15.95
2016-05-07T06:07:29.026Z,15.92
2016-05-07T06:08:28.904Z,16.08
2016-05-07T06:09:29.079Z,16.01
2016-05-07T06:10:29.129Z,16.08
2016-05-07T06:11:29.162Z,16.12
2016-05-07T06:12:30.586Z,16.17
2016-05-07T06:13:29.261Z,16.36
2016-05-07T06:14:29.280Z,16.33
2016-05-07T06:15:29.314Z,16.47
2016-05-07T06:16:29.364Z,16.6
2016-05-07T06:17:29.241Z,16.51
2016-05-07T06:18:29.431Z,16.65
2016-05-07T06:19:29.465Z,16.65
2016-05-07T06:20:29.500Z,16.66
2016-05-07T06:21:29.549Z,16.61
2016-05-07T06:22:29.567Z,16.6
2016-05-07T06:23:29.366Z,16.57
2016-05-07T06:24:30.307Z,16.53
2016-05-07T06:25:29.685Z,16.56
2016-05-07T06:26:29.733Z,16.71
2016-05-07T06:27:30.502Z,16.75
2016-05-07T06:28:29.802Z,16.71
2016-05-07T06:29:29.835Z,16.74
2016-05-07T06:30:29.869Z,16.78
2016-05-07T06:31:29.762Z,17.01
2016-05-07T06:32:29.953Z,17.02
2016-05-07T06:33:29.988Z,17.14
2016-05-07T06:34:29.724Z,17.29
2016-05-07T06:35:30.054Z,17.04
2016-05-07T06:36:30.105Z,16.96
2016-05-07T06:37:30.138Z,17.02
2016-05-07T06:38:30.173Z,17.04
2016-05-07T06:39:30.222Z,16.93
2016-05-07T06:40:30.084Z,17.06
2016-05-07T06:41:30.290Z,17.08
2016-05-07T06:42:30.276Z,17.19
2016-05-07T06:43:30.373Z,17.16
2016-05-07T06:44:30.406Z,17.26
2016-05-07T06:45:30.269Z,17.22
2016-05-07T06:46:30.319Z,17.31
2016-05-07T06:47:30.509Z,17.33
2016-05-07T06:48:30.543Z,17.34
2016-05-07T06:49:30.592Z,17.36
2016-05-07T06:50:30.627Z,17.51
2016-05-07T06:51:30.676Z,17.51
2016-05-07T06:52:30.694Z,17.42
2016-05-07T06:53:30.744Z,17.36
2016-05-07T06:54:30.778Z,17.54
2016-05-07T06:55:30.827Z,17.59
2016-05-07T06:56:30.846Z,17.54
2016-05-07T06:57:30.973Z,17.64
2016-05-07T06:58:30.930Z,17.72
2016-05-07T06:59:30.963Z,17.71
2016-05-07T07:00:31.012Z,17.72
2016-05-07T07:01:30.874Z,17.7
2016-05-07T07:02:30.940Z,17.71
2016-05-07T07:03:31.130Z,17.86
2016-05-07T07:04:30.993Z,17.8
2016-05-07T07:05:31.198Z,17.87
2016-05-07T07:06:31.232Z,17.94
2016-05-07T07:07:31.281Z,17.86
2016-05-07T07:08:31.316Z,17.92
2016-05-07T07:09:31.349Z,17.85
2016-05-07T07:10:31.383Z,17.9
2016-05-07T07:11:31.434Z,17.86
2016-05-07T07:12:31.342Z,17.9
2016-05-07T07:13:31.345Z,17.89
2016-05-07T07:14:31.534Z,18.08
2016-05-07T07:15:31.569Z,18.18
2016-05-07T07:16:31.461Z,18.13
2016-05-07T07:17:31.496Z,18.26
2016-05-07T07:18:31.687Z,18.41
2016-05-07T07:19:31.580Z,18.5
2016-05-07T07:20:31.613Z,18.53
2016-05-07T07:21:31.803Z,18.43
2016-05-07T07:22:31.838Z,18.53
2016-05-07T07:23:31.887Z,18.55
2016-05-07T07:24:31.609Z,18.52
2016-05-07T07:25:31.971Z,18.49
2016-05-07T07:26:31.989Z,18.49
2016-05-07T07:27:32.413Z,18.66
2016-05-07T07:28:32.072Z,18.6
2016-05-07T07:29:32.106Z,18.63
2016-05-07T07:30:32.141Z,18.66
2016-05-07T07:31:32.034Z,18.77
2016-05-07T07:32:32.224Z,18.86
2016-05-07T07:33:32.257Z,18.9
2016-05-07T07:34:32.323Z,18.9
2016-05-07T07:35:32.185Z,19.02
2016-05-07T07:36:32.376Z,19.24
2016-05-07T07:37:32.425Z,19.4
2016-05-07T07:38:32.443Z,19.62
2016-05-07T07:39:32.337Z,19.7
2016-05-07T07:40:32.542Z,19.79
2016-05-07T07:41:32.576Z,19.92
2016-05-07T07:42:32.720Z,19.95
2016-05-07T07:43:32.660Z,19.73
2016-05-07T07:44:32.537Z,19.91
2016-05-07T07:45:32.743Z,20.29
2016-05-07T07:46:32.620Z,20.48
2016-05-07T07:47:32.655Z,20.5
2016-05-07T07:48:32.689Z,20.75
2016-05-07T07:49:32.879Z,20.72
2016-05-07T07:50:32.928Z,21.27
2016-05-07T07:51:32.962Z,21.93
2016-05-07T07:52:32.855Z,23.21
2016-05-07T07:53:33.047Z,24.24
2016-05-07T07:54:32.939Z,24.98
2016-05-07T07:55:33.130Z,25.53
2016-05-07T07:56:33.180Z,25.73
2016-05-07T07:57:33.963Z,26.33
2016-05-07T07:58:33.091Z,26.63
2016-05-07T07:59:33.296Z,26.71
2016-05-07T08:00:33.190Z,26.7
2016-05-07T08:01:33.224Z,25.93
2016-05-07T08:02:33.430Z,25.06
2016-05-07T08:03:33.307Z,25.06
2016-05-07T08:04:33.341Z,24.99
2016-05-07T08:05:33.546Z,25.35
2016-05-07T08:06:33.613Z,24.91
2016-05-07T08:07:33.630Z,24.76
2016-05-07T08:08:33.524Z,24.86
2016-05-07T08:09:33.557Z,24.84
2016-05-07T08:10:33.795Z,24.98
2016-05-07T08:11:33.829Z,25.07
2016-05-07T08:12:33.909Z,25.47
2016-05-07T08:13:33.912Z,25.85
2016-05-07T08:14:33.790Z,25.48
2016-05-07T08:15:33.995Z,25.95
2016-05-07T08:16:34.046Z,26.71
2016-05-07T08:17:34.111Z,27.11
2016-05-07T08:18:33.988Z,26.66
2016-05-07T08:19:34.178Z,26.75
2016-05-07T08:20:34.072Z,27.4
2016-05-07T08:21:34.278Z,27.54
2016-05-07T08:22:34.328Z,27.95
2016-05-07T08:23:34.361Z,27.49
2016-05-07T08:24:34.425Z,26.56
2016-05-07T08:25:34.460Z,26.95
2016-05-07T08:26:34.495Z,27.35
2016-05-07T08:27:34.763Z,27.7
2016-05-07T08:28:34.452Z,28.51
2016-05-07T08:29:34.648Z,27.93
2016-05-07T08:30:34.739Z,27.11
2016-05-07T08:31:34.677Z,26.83
2016-05-07T08:32:34.769Z,26.71
2016-05-07T08:33:35.002Z,27.51
2016-05-07T08:34:35.091Z,28.12
2016-05-07T08:35:35.156Z,28.47
2016-05-07T08:36:35.222Z,27.78
2016-05-07T08:37:35.131Z,27
2016-05-07T08:38:35.351Z,27.02
2016-05-07T08:39:35.258Z,27.54
2016-05-07T08:40:35.471Z,27.35
2016-05-07T08:41:35.369Z,27.14
2016-05-07T08:42:35.425Z,26.63
2016-05-07T08:43:35.324Z,26.59
2016-05-07T08:44:35.519Z,26.48
2016-05-07T08:45:35.727Z,26.6
2016-05-07T08:46:35.779Z,27.22
2016-05-07T08:47:35.674Z,27.22
2016-05-07T08:48:35.881Z,27.33
2016-05-07T08:49:35.934Z,27.11
2016-05-07T08:50:35.999Z,26.96
2016-05-07T08:51:36.034Z,26.59
2016-05-07T08:52:36.084Z,26.22
2016-05-07T08:53:36.134Z,25.59
2016-05-07T08:54:36.169Z,25.03
2016-05-07T08:55:36.234Z,24.84
2016-05-07T08:56:36.285Z,24.61
2016-05-07T08:57:36.429Z,25.28
2016-05-07T08:58:36.369Z,26.03
2016-05-07T08:59:36.278Z,26.1
2016-05-07T09:00:36.671Z,26.02
2016-05-07T09:01:36.518Z,26.18
2016-05-07T09:02:36.568Z,25.9
2016-05-07T09:03:36.616Z,25.93
2016-05-07T09:04:36.667Z,25.35
2016-05-07T09:05:36.701Z,24.76
2016-05-07T09:06:36.750Z,24.53
2016-05-07T09:07:36.643Z,24.63
2016-05-07T09:08:36.865Z,25.01
2016-05-07T09:09:36.727Z,25.06
2016-05-07T09:10:36.949Z,25.58
2016-05-07T09:11:36.982Z,26.33
2016-05-07T09:12:37.110Z,26.22
2016-05-07T09:13:37.081Z,25.91
2016-05-07T09:14:36.976Z,26.74
2016-05-07T09:15:37.181Z,27.2
2016-05-07T09:16:37.215Z,27.58
2016-05-07T09:17:37.264Z,27.68
2016-05-07T09:18:37.314Z,27.7
2016-05-07T09:19:37.348Z,28.23
2016-05-07T09:20:37.257Z,28.35
2016-05-07T09:21:37.306Z,28.97
2016-05-07T09:22:37.496Z,28.6
2016-05-07T09:23:37.546Z,28.63
2016-05-07T09:24:37.595Z,28.01
2016-05-07T09:25:37.630Z,28.96
2016-05-07T09:26:37.695Z,29.04
2016-05-07T09:27:38.025Z,28.54
2016-05-07T09:28:37.778Z,28.42
2016-05-07T09:29:37.828Z,28.56
2016-05-07T09:30:37.877Z,28.33
2016-05-07T09:31:37.958Z,29.17
2016-05-07T09:32:37.960Z,29.65
2016-05-07T09:33:38.010Z,29.49
2016-05-07T09:34:38.075Z,29.71
2016-05-07T09:35:38.125Z,29.57
2016-05-07T09:36:38.160Z,28.82
2016-05-07T09:37:38.208Z,28.44
2016-05-07T09:38:38.258Z,28.69
2016-05-07T09:39:38.167Z,28.47
2016-05-07T09:40:38.388Z,29.07
2016-05-07T09:41:38.407Z,29.63
2016-05-07T09:42:38.457Z,29.59
2016-05-07T09:43:38.349Z,29.26
2016-05-07T09:44:38.571Z,28.76
2016-05-07T09:45:38.465Z,28.33
2016-05-07T09:46:38.499Z,28.32
2016-05-07T09:47:38.704Z,27.9
2016-05-07T09:48:38.770Z,28.2
2016-05-07T09:49:38.803Z,28.82
2016-05-07T09:50:38.853Z,29.07
2016-05-07T09:51:38.903Z,29.44
2016-05-07T09:52:38.796Z,29.1
2016-05-07T09:53:39.033Z,29.2
2016-05-07T09:54:38.895Z,28.57
2016-05-07T09:55:39.116Z,28.75
2016-05-07T09:56:39.151Z,28.48
2016-05-07T09:57:39.294Z,28.1
2016-05-07T09:58:39.265Z,28.22
2016-05-07T09:59:39.314Z,27.89
2016-05-07T10:00:39.380Z,27.82
2016-05-07T10:01:39.258Z,27.78
2016-05-07T10:02:39.464Z,28.59
2016-05-07T10:03:39.513Z,28.64
2016-05-07T10:04:39.578Z,28.66
2016-05-07T10:05:39.613Z,29.27
2016-05-07T10:06:39.661Z,29.81
2016-05-07T10:07:39.711Z,30
2016-05-07T10:08:39.449Z,29.91
2016-05-07T10:09:39.498Z,28.93
2016-05-07T10:10:39.876Z,28.67
2016-05-07T10:11:39.925Z,28.79
2016-05-07T10:12:39.990Z,28.62
2016-05-07T10:13:40.024Z,28.7
2016-05-07T10:14:40.074Z,29.13
2016-05-07T10:15:40.123Z,28.49
2016-05-07T10:16:40.188Z,28.81
2016-05-07T10:17:40.098Z,28.79
2016-05-07T10:18:40.132Z,28.93
2016-05-07T10:19:40.337Z,29.76
2016-05-07T10:20:40.387Z,28.79
2016-05-07T10:21:40.421Z,28.3
2016-05-07T10:22:40.486Z,28.88
2016-05-07T10:23:40.535Z,29.45
2016-05-07T10:24:40.600Z,29.98
2016-05-07T10:25:40.651Z,29.51
2016-05-07T10:26:40.700Z,29.29
2016-05-07T10:27:40.733Z,29.61
2016-05-07T10:28:40.779Z,28.52
2016-05-07T10:29:40.828Z,28.49
2016-05-07T10:30:40.892Z,28.33
2016-05-07T10:31:40.943Z,27.67
2016-05-07T10:32:41.008Z,27.59
2016-05-07T10:33:41.042Z,28.14
2016-05-07T10:34:41.091Z,28.33
2016-05-07T10:35:41.142Z,28.91
2016-05-07T10:36:41.191Z,29.38
2016-05-07T10:37:41.240Z,29.68
2016-05-07T10:38:41.306Z,29.78
2016-05-07T10:39:41.371Z,30.43
2016-05-07T10:40:41.404Z,30.48
2016-05-07T10:41:41.454Z,30.24
2016-05-07T10:42:41.457Z,30.59
2016-05-07T10:43:41.585Z,30.66
2016-05-07T10:44:41.462Z,30.72
2016-05-07T10:45:41.496Z,30.7
2016-05-07T10:46:41.718Z,31.02
2016-05-07T10:47:41.767Z,30.46
2016-05-07T10:48:41.676Z,30.55
2016-05-07T10:49:41.726Z,30.47
2016-05-07T10:50:41.932Z,30.18
2016-05-07T10:51:41.668Z,30.27
2016-05-07T10:52:42.031Z,30.61
2016-05-07T10:53:42.080Z,30.87
2016-05-07T10:54:42.145Z,30.73
2016-05-07T10:55:42.179Z,31.03
2016-05-07T10:56:42.087Z,29.42
2016-05-07T10:57:43.045Z,29.94
2016-05-07T10:58:42.359Z,30.97
2016-05-07T10:59:42.408Z,30.9
2016-05-07T11:00:42.459Z,31
2016-05-07T11:01:42.351Z,30.39
2016-05-07T11:02:42.557Z,30.46
2016-05-07T11:03:42.606Z,30.8
2016-05-07T11:04:42.657Z,30.83
2016-05-07T11:05:42.706Z,31.03
2016-05-07T11:06:42.786Z,31.43
2016-05-07T11:07:42.822Z,30.72
2016-05-07T11:08:42.870Z,30.1
2016-05-07T11:09:42.935Z,30.46
2016-05-07T11:10:42.985Z,28.98
2016-05-07T11:11:43.035Z,29.81
2016-05-07T11:12:43.506Z,29.88
2016-05-07T11:13:43.133Z,29.75
2016-05-07T11:14:43.199Z,29.73
2016-05-07T11:15:43.249Z,28.84
2016-05-07T11:16:43.001Z,29.24
2016-05-07T11:17:43.363Z,29.84
2016-05-07T11:18:43.257Z,29.73
2016-05-07T11:19:43.463Z,30.05
2016-05-07T11:20:43.512Z,30.12
2016-05-07T11:21:43.562Z,30.68
2016-05-07T11:22:43.626Z,30.59
2016-05-07T11:23:44.051Z,30.39
2016-05-07T11:24:43.757Z,29.86
2016-05-07T11:25:43.791Z,29.71
2016-05-07T11:26:43.684Z,29.73
2016-05-07T11:27:44.125Z,30.12
2016-05-07T11:28:43.784Z,30.37
2016-05-07T11:29:43.848Z,30.78
2016-05-07T11:30:44.039Z,31.07
2016-05-07T11:31:43.948Z,31.36
2016-05-07T11:32:44.169Z,30.57
2016-05-07T11:33:44.220Z,30.59
2016-05-07T11:34:44.253Z,30.37
2016-05-07T11:35:44.334Z,30.28
2016-05-07T11:36:44.383Z,29.61
2016-05-07T11:37:44.416Z,29.39
2016-05-07T11:38:44.483Z,29.24
2016-05-07T11:39:44.547Z,30.23
2016-05-07T11:40:44.441Z,29.97
2016-05-07T11:41:44.646Z,29.54
2016-05-07T11:42:44.681Z,29.78
2016-05-07T11:43:44.746Z,30.28
2016-05-07T11:44:44.810Z,29.86
2016-05-07T11:45:44.877Z,29.27
2016-05-07T11:46:44.910Z,29.65
2016-05-07T11:47:44.975Z,29.39
2016-05-07T11:48:45.024Z,29.61
2016-05-07T11:49:45.074Z,29.66
2016-05-07T11:50:45.140Z,30.59
2016-05-07T11:51:45.205Z,30.1
2016-05-07T11:52:44.910Z,30.51
2016-05-07T11:53:45.304Z,30.23
2016-05-07T11:54:45.198Z,30.18
2016-05-07T11:55:45.231Z,29.94
2016-05-07T11:56:45.468Z,30.24
2016-05-07T11:57:45.751Z,30.28
2016-05-07T11:58:45.412Z,30.7
2016-05-07T11:59:45.617Z,31.06
2016-05-07T12:00:45.667Z,30.77
2016-05-07T12:01:45.731Z,29.61
2016-05-07T12:02:45.781Z,29.95
2016-05-07T12:03:45.831Z,30.59
2016-05-07T12:04:45.880Z,30.69
2016-05-07T12:05:45.945Z,30.9
2016-05-07T12:06:45.995Z,31.28
2016-05-07T12:07:45.904Z,30.78
2016-05-07T12:08:45.953Z,31.17
2016-05-07T12:09:46.159Z,31.37
2016-05-07T12:10:46.209Z,31.15
2016-05-07T12:11:46.274Z,29.86
2016-05-07T12:12:46.511Z,28.75
2016-05-07T12:13:46.374Z,29.31
2016-05-07T12:14:46.438Z,29.88
2016-05-07T12:15:46.488Z,29.91
2016-05-07T12:16:46.382Z,29.95
2016-05-07T12:17:46.587Z,30.35
2016-05-07T12:18:46.652Z,30.57
2016-05-07T12:19:46.546Z,30.75
2016-05-07T12:20:46.768Z,29.81
2016-05-07T12:21:46.832Z,29.93
2016-05-07T12:22:46.866Z,29.93
2016-05-07T12:23:46.932Z,30.18
2016-05-07T12:24:46.824Z,30
2016-05-07T12:25:47.031Z,29.41
2016-05-07T12:26:47.079Z,28.56
2016-05-07T12:27:46.849Z,29.01
2016-05-07T12:28:47.195Z,28.67
2016-05-07T12:29:47.088Z,28.45
2016-05-07T12:30:47.309Z,29.24
2016-05-07T12:31:47.187Z,30.08
2016-05-07T12:32:47.425Z,30.24
2016-05-07T12:33:47.302Z,30.23
2016-05-07T12:34:47.524Z,30.31
2016-05-07T12:35:47.572Z,30.06
2016-05-07T12:36:47.482Z,30.02
2016-05-07T12:37:47.688Z,29.75
2016-05-07T12:38:47.581Z,29.59
2016-05-07T12:39:47.802Z,29.56
2016-05-07T12:40:47.853Z,29.45
2016-05-07T12:41:47.886Z,29.29
2016-05-07T12:42:47.952Z,28.48
2016-05-07T12:43:48.000Z,28.35
2016-05-07T12:44:48.066Z,28.49
2016-05-07T12:45:48.116Z,28.38
2016-05-07T12:46:48.181Z,28.41
2016-05-07T12:47:48.230Z,28.7
2016-05-07T12:48:48.264Z,28.57
2016-05-07T12:49:48.330Z,27.77
2016-05-07T12:50:48.363Z,27.73
2016-05-07T12:51:48.429Z,28.15
2016-05-07T12:52:48.478Z,28.94
2016-05-07T12:53:48.371Z,28.75
2016-05-07T12:54:48.436Z,28.59
2016-05-07T12:55:48.487Z,29.02